sensor_id;sensor_type;location;lat;lon;timestamp;P1;durP1;ratioP1;P2;durP2;ratioP2
64244;SDS011;50584;29.058;-110.966;2023-07-13T00:01:12;13.07;;;1.75;;
64244;SDS011;50584;29.058;-110.966;2023-07-13T00:03:38;7.05;;;2.17;;
64244;SDS011;50584;29.058;-110.966;2023-07-13T00:06:06;8.55;;;1.98;;
64244;SDS011;50584;29.058;-110.966;2023-07-13T00:08:32;5.10;;;1.58;;
64244;SDS011;50584;29.058;-110.966;2023-07-13T00:11:01;7.07;;;1.40;;
64244;SDS011;50584;29.058;-110.966;2023-07-13T00:13:27;5.78;;;1.60;;
64244;SDS011;50584;29.058;-110.966;2023-07-13T00:15:53;3.50;;;1.67;;
64244;SDS011;50584;29.058;-110.966;2023-07-13T00:18:19;10.20;;;1.98;;
64244;SDS011;50584;29.058;-110.966;2023-07-13T00:20:45;5.35;;;1.60;;
64244;SDS011;50584;29.058;-110.966;2023-07-13T00:23:11;7.72;;;2.47;;
64244;SDS011;50584;29.058;-110.966;2023-07-13T00:25:37;12.00;;;4.03;;
64244;SDS011;50584;29.058;-110.966;2023-07-13T00:28:03;7.55;;;2.03;;
64244;SDS011;50584;29.058;-110.966;2023-07-13T00:30:29;5.05;;;1.98;;
64244;SDS011;50584;29.058;-110.966;2023-07-13T00:32:55;7.32;;;1.80;;
64244;SDS011;50584;29.058;-110.966;2023-07-13T00:35:21;9.75;;;1.83;;
64244;SDS011;50584;29.058;-110.966;2023-07-13T00:37:46;8.27;;;1.70;;
64244;SDS011;50584;29.058;-110.966;2023-07-13T00:40:13;7.57;;;1.92;;
64244;SDS011;50584;29.058;-110.966;2023-07-13T00:42:39;9.60;;;2.00;;
64244;SDS011;50584;29.058;-110.966;2023-07-13T00:47:37;12.73;;;2.70;;
64244;SDS011;50584;29.058;-110.966;2023-07-13T00:50:03;7.53;;;2.05;;
64244;SDS011;50584;29.058;-110.966;2023-07-13T00:52:30;9.38;;;2.33;;
64244;SDS011;50584;29.058;-110.966;2023-07-13T00:54:56;8.25;;;1.63;;
64244;SDS011;50584;29.058;-110.966;2023-07-13T00:57:22;11.02;;;1.85;;
64244;SDS011;50584;29.058;-110.966;2023-07-13T00:59:50;20.17;;;2.05;;
64244;SDS011;50584;29.058;-110.966;2023-07-13T01:02:17;6.07;;;1.83;;
64244;SDS011;50584;29.058;-110.966;2023-07-13T01:04:43;10.88;;;1.98;;
64244;SDS011;50584;29.058;-110.966;2023-07-13T01:07:09;3.47;;;1.80;;
64244;SDS011;50584;29.058;-110.966;2023-07-13T01:09:36;4.97;;;1.60;;
64244;SDS011;50584;29.058;-110.966;2023-07-13T01:12:02;6.35;;;1.65;;
64244;SDS011;50584;29.058;-110.966;2023-07-13T01:14:28;18.08;;;2.47;;
64244;SDS011;50584;29.058;-110.966;2023-07-13T01:16:54;6.13;;;1.75;;
64244;SDS011;50584;29.058;-110.966;2023-07-13T01:19:40;13.25;;;2.00;;
64244;SDS011;50584;29.058;-110.966;2023-07-13T01:22:09;4.80;;;1.63;;
64244;SDS011;50584;29.058;-110.966;2023-07-13T01:24:37;5.72;;;2.45;;
64244;SDS011;50584;29.058;-110.966;2023-07-13T01:27:03;16.13;;;1.90;;
64244;SDS011;50584;29.058;-110.966;2023-07-13T01:29:31;7.22;;;2.05;;
64244;SDS011;50584;29.058;-110.966;2023-07-13T01:31:57;9.98;;;3.60;;
64244;SDS011;50584;29.058;-110.966;2023-07-13T01:34:25;9.98;;;2.15;;
64244;SDS011;50584;29.058;-110.966;2023-07-13T01:36:51;9.80;;;1.95;;
64244;SDS011;50584;29.058;-110.966;2023-07-13T01:39:20;17.02;;;1.70;;
64244;SDS011;50584;29.058;-110.966;2023-07-13T01:41:46;4.47;;;1.58;;
64244;SDS011;50584;29.058;-110.966;2023-07-13T01:44:12;9.05;;;1.67;;
64244;SDS011;50584;29.058;-110.966;2023-07-13T01:46:37;7.28;;;1.70;;
64244;SDS011;50584;29.058;-110.966;2023-07-13T01:49:03;14.95;;;2.00;;
64244;SDS011;50584;29.058;-110.966;2023-07-13T01:51:29;12.63;;;1.75;;
64244;SDS011;50584;29.058;-110.966;2023-07-13T01:53:55;13.40;;;1.90;;
64244;SDS011;50584;29.058;-110.966;2023-07-13T01:56:20;7.45;;;2.00;;
64244;SDS011;50584;29.058;-110.966;2023-07-13T01:58:46;12.38;;;1.90;;
64244;SDS011;50584;29.058;-110.966;2023-07-13T02:01:12;12.38;;;1.95;;
64244;SDS011;50584;29.058;-110.966;2023-07-13T02:03:38;8.82;;;2.05;;
64244;SDS011;50584;29.058;-110.966;2023-07-13T02:06:04;9.05;;;1.70;;
64244;SDS011;50584;29.058;-110.966;2023-07-13T02:08:31;9.13;;;2.63;;
64244;SDS011;50584;29.058;-110.966;2023-07-13T02:10:57;5.43;;;1.80;;
64244;SDS011;50584;29.058;-110.966;2023-07-13T02:13:23;5.63;;;1.75;;
64244;SDS011;50584;29.058;-110.966;2023-07-13T02:15:52;10.63;;;2.13;;
64244;SDS011;50584;29.058;-110.966;2023-07-13T02:18:17;10.40;;;1.92;;
64244;SDS011;50584;29.058;-110.966;2023-07-13T02:20:44;4.05;;;1.90;;
64244;SDS011;50584;29.058;-110.966;2023-07-13T02:23:10;6.97;;;1.92;;
64244;SDS011;50584;29.058;-110.966;2023-07-13T02:25:35;2.88;;;1.83;;
64244;SDS011;50584;29.058;-110.966;2023-07-13T02:28:01;12.48;;;1.80;;
64244;SDS011;50584;29.058;-110.966;2023-07-13T02:30:27;2.47;;;1.73;;
64244;SDS011;50584;29.058;-110.966;2023-07-13T02:32:55;10.60;;;2.20;;
64244;SDS011;50584;29.058;-110.966;2023-07-13T02:35:21;9.27;;;1.63;;
64244;SDS011;50584;29.058;-110.966;2023-07-13T02:37:46;9.48;;;1.95;;
64244;SDS011;50584;29.058;-110.966;2023-07-13T02:40:12;6.13;;;1.75;;
64244;SDS011;50584;29.058;-110.966;2023-07-13T02:42:38;6.82;;;1.63;;
64244;SDS011;50584;29.058;-110.966;2023-07-13T02:45:04;4.93;;;1.50;;
64244;SDS011;50584;29.058;-110.966;2023-07-13T02:47:31;10.68;;;1.80;;
64244;SDS011;50584;29.058;-110.966;2023-07-13T02:49:57;5.60;;;1.95;;
64244;SDS011;50584;29.058;-110.966;2023-07-13T02:52:23;2.42;;;1.60;;
64244;SDS011;50584;29.058;-110.966;2023-07-13T02:54:48;7.60;;;1.80;;
64244;SDS011;50584;29.058;-110.966;2023-07-13T02:57:14;5.32;;;1.90;;
64244;SDS011;50584;29.058;-110.966;2023-07-13T02:59:40;8.50;;;1.80;;
64244;SDS011;50584;29.058;-110.966;2023-07-13T03:02:06;6.18;;;1.85;;
64244;SDS011;50584;29.058;-110.966;2023-07-13T03:04:31;5.82;;;1.98;;
64244;SDS011;50584;29.058;-110.966;2023-07-13T03:06:57;6.25;;;2.00;;
64244;SDS011;50584;29.058;-110.966;2023-07-13T03:09:24;4.22;;;1.42;;
64244;SDS011;50584;29.058;-110.966;2023-07-13T03:11:53;12.75;;;2.22;;
64244;SDS011;50584;29.058;-110.966;2023-07-13T03:14:19;12.05;;;2.20;;
64244;SDS011;50584;29.058;-110.966;2023-07-13T03:16:45;12.27;;;2.10;;
64244;SDS011;50584;29.058;-110.966;2023-07-13T03:19:10;5.95;;;2.00;;
64244;SDS011;50584;29.058;-110.966;2023-07-13T03:21:36;9.77;;;1.90;;
64244;SDS011;50584;29.058;-110.966;2023-07-13T03:24:02;6.75;;;1.70;;
64244;SDS011;50584;29.058;-110.966;2023-07-13T03:26:28;7.35;;;1.83;;
64244;SDS011;50584;29.058;-110.966;2023-07-13T03:28:53;3.25;;;1.63;;
64244;SDS011;50584;29.058;-110.966;2023-07-13T03:31:21;9.20;;;1.80;;
64244;SDS011;50584;29.058;-110.966;2023-07-13T03:33:47;4.15;;;1.80;;
64244;SDS011;50584;29.058;-110.966;2023-07-13T03:36:15;2.25;;;1.52;;
64244;SDS011;50584;29.058;-110.966;2023-07-13T03:38:42;4.60;;;1.83;;
64244;SDS011;50584;29.058;-110.966;2023-07-13T03:41:08;3.80;;;2.00;;
64244;SDS011;50584;29.058;-110.966;2023-07-13T03:43:34;3.72;;;1.50;;
64244;SDS011;50584;29.058;-110.966;2023-07-13T03:46:00;5.78;;;1.63;;
64244;SDS011;50584;29.058;-110.966;2023-07-13T03:48:25;5.43;;;1.70;;
64244;SDS011;50584;29.058;-110.966;2023-07-13T03:50:51;4.03;;;1.70;;
64244;SDS011;50584;29.058;-110.966;2023-07-13T03:53:17;8.50;;;2.05;;
64244;SDS011;50584;29.058;-110.966;2023-07-13T03:55:44;7.07;;;1.83;;
64244;SDS011;50584;29.058;-110.966;2023-07-13T03:58:29;2.58;;;1.75;;
64244;SDS011;50584;29.058;-110.966;2023-07-13T04:00:56;3.92;;;1.95;;
64244;SDS011;50584;29.058;-110.966;2023-07-13T04:03:22;4.50;;;2.08;;
64244;SDS011;50584;29.058;-110.966;2023-07-13T04:05:48;5.90;;;2.00;;
64244;SDS011;50584;29.058;-110.966;2023-07-13T04:08:14;8.15;;;1.77;;
64244;SDS011;50584;29.058;-110.966;2023-07-13T04:10:40;7.05;;;2.30;;
64244;SDS011;50584;29.058;-110.966;2023-07-13T04:13:05;9.27;;;1.67;;
64244;SDS011;50584;29.058;-110.966;2023-07-13T04:15:32;10.80;;;1.63;;
64244;SDS011;50584;29.058;-110.966;2023-07-13T04:17:58;7.65;;;1.85;;
64244;SDS011;50584;29.058;-110.966;2023-07-13T04:20:24;11.10;;;1.98;;
64244;SDS011;50584;29.058;-110.966;2023-07-13T04:22:51;5.97;;;1.75;;
64244;SDS011;50584;29.058;-110.966;2023-07-13T04:25:19;5.38;;;1.80;;
64244;SDS011;50584;29.058;-110.966;2023-07-13T04:27:46;3.88;;;1.92;;
64244;SDS011;50584;29.058;-110.966;2023-07-13T04:30:12;3.63;;;1.73;;
64244;SDS011;50584;29.058;-110.966;2023-07-13T04:32:39;3.45;;;1.92;;
64244;SDS011;50584;29.058;-110.966;2023-07-13T04:35:06;2.58;;;1.63;;
64244;SDS011;50584;29.058;-110.966;2023-07-13T04:37:33;4.93;;;1.98;;
64244;SDS011;50584;29.058;-110.966;2023-07-13T04:40:01;7.95;;;2.47;;
64244;SDS011;50584;29.058;-110.966;2023-07-13T04:42:29;5.75;;;2.60;;
64244;SDS011;50584;29.058;-110.966;2023-07-13T04:44:55;9.35;;;2.60;;
64244;SDS011;50584;29.058;-110.966;2023-07-13T04:47:21;2.13;;;1.60;;
64244;SDS011;50584;29.058;-110.966;2023-07-13T04:49:48;4.28;;;1.50;;
64244;SDS011;50584;29.058;-110.966;2023-07-13T04:52:14;2.67;;;1.70;;
64244;SDS011;50584;29.058;-110.966;2023-07-13T04:54:41;6.95;;;1.60;;
64244;SDS011;50584;29.058;-110.966;2023-07-13T04:57:08;3.78;;;1.80;;
64244;SDS011;50584;29.058;-110.966;2023-07-13T04:59:34;1.50;;;1.40;;
64244;SDS011;50584;29.058;-110.966;2023-07-13T05:02:00;3.10;;;1.88;;
64244;SDS011;50584;29.058;-110.966;2023-07-13T05:04:27;10.07;;;1.98;;
64244;SDS011;50584;29.058;-110.966;2023-07-13T05:06:54;3.10;;;1.95;;
64244;SDS011;50584;29.058;-110.966;2023-07-13T05:09:20;2.85;;;1.80;;
64244;SDS011;50584;29.058;-110.966;2023-07-13T05:11:46;4.45;;;1.83;;
64244;SDS011;50584;29.058;-110.966;2023-07-13T05:14:13;3.83;;;2.00;;
64244;SDS011;50584;29.058;-110.966;2023-07-13T05:16:40;11.13;;;2.47;;
64244;SDS011;50584;29.058;-110.966;2023-07-13T05:19:07;8.43;;;2.00;;
64244;SDS011;50584;29.058;-110.966;2023-07-13T05:21:33;2.35;;;1.80;;
64244;SDS011;50584;29.058;-110.966;2023-07-13T05:24:00;5.55;;;1.83;;
64244;SDS011;50584;29.058;-110.966;2023-07-13T05:26:26;5.20;;;1.67;;
64244;SDS011;50584;29.058;-110.966;2023-07-13T05:28:52;2.70;;;1.40;;
64244;SDS011;50584;29.058;-110.966;2023-07-13T05:31:18;3.55;;;1.33;;
64244;SDS011;50584;29.058;-110.966;2023-07-13T05:33:44;4.25;;;1.50;;
64244;SDS011;50584;29.058;-110.966;2023-07-13T05:36:11;1.55;;;1.45;;
64244;SDS011;50584;29.058;-110.966;2023-07-13T05:38:37;2.60;;;1.77;;
64244;SDS011;50584;29.058;-110.966;2023-07-13T05:41:03;8.10;;;2.25;;
64244;SDS011;50584;29.058;-110.966;2023-07-13T05:43:29;9.88;;;1.85;;
64244;SDS011;50584;29.058;-110.966;2023-07-13T05:45:55;2.22;;;1.45;;
64244;SDS011;50584;29.058;-110.966;2023-07-13T05:48:22;4.05;;;1.60;;
64244;SDS011;50584;29.058;-110.966;2023-07-13T05:50:48;2.90;;;1.48;;
64244;SDS011;50584;29.058;-110.966;2023-07-13T05:53:14;2.70;;;1.48;;
64244;SDS011;50584;29.058;-110.966;2023-07-13T05:55:44;5.28;;;1.70;;
64244;SDS011;50584;29.058;-110.966;2023-07-13T05:58:12;2.28;;;1.45;;
64244;SDS011;50584;29.058;-110.966;2023-07-13T06:00:38;2.22;;;1.55;;
64244;SDS011;50584;29.058;-110.966;2023-07-13T06:03:05;10.50;;;2.22;;
64244;SDS011;50584;29.058;-110.966;2023-07-13T06:05:32;7.03;;;2.28;;
64244;SDS011;50584;29.058;-110.966;2023-07-13T06:07:59;2.80;;;1.58;;
64244;SDS011;50584;29.058;-110.966;2023-07-13T06:10:25;5.57;;;1.90;;
64244;SDS011;50584;29.058;-110.966;2023-07-13T06:12:50;5.82;;;2.15;;
64244;SDS011;50584;29.058;-110.966;2023-07-13T06:15:16;10.07;;;1.77;;
64244;SDS011;50584;29.058;-110.966;2023-07-13T06:17:42;6.40;;;2.20;;
64244;SDS011;50584;29.058;-110.966;2023-07-13T06:20:09;3.40;;;1.45;;
64244;SDS011;50584;29.058;-110.966;2023-07-13T06:22:35;8.38;;;1.83;;
64244;SDS011;50584;29.058;-110.966;2023-07-13T06:25:00;3.75;;;1.90;;
64244;SDS011;50584;29.058;-110.966;2023-07-13T06:27:26;4.78;;;1.60;;
64244;SDS011;50584;29.058;-110.966;2023-07-13T06:29:52;6.38;;;2.03;;
64244;SDS011;50584;29.058;-110.966;2023-07-13T06:32:18;4.50;;;1.60;;
64244;SDS011;50584;29.058;-110.966;2023-07-13T06:34:44;7.50;;;1.50;;
64244;SDS011;50584;29.058;-110.966;2023-07-13T06:37:10;3.78;;;1.45;;
64244;SDS011;50584;29.058;-110.966;2023-07-13T06:39:36;2.95;;;1.48;;
64244;SDS011;50584;29.058;-110.966;2023-07-13T06:42:01;1.63;;;1.52;;
64244;SDS011;50584;29.058;-110.966;2023-07-13T06:44:27;2.55;;;1.60;;
64244;SDS011;50584;29.058;-110.966;2023-07-13T06:46:53;3.33;;;1.67;;
64244;SDS011;50584;29.058;-110.966;2023-07-13T06:49:19;5.13;;;1.23;;
64244;SDS011;50584;29.058;-110.966;2023-07-13T06:51:45;3.28;;;1.58;;
64244;SDS011;50584;29.058;-110.966;2023-07-13T06:54:10;1.88;;;1.45;;
64244;SDS011;50584;29.058;-110.966;2023-07-13T06:56:36;4.38;;;1.65;;
64244;SDS011;50584;29.058;-110.966;2023-07-13T06:59:02;1.50;;;1.40;;
64244;SDS011;50584;29.058;-110.966;2023-07-13T07:01:28;3.10;;;1.30;;
64244;SDS011;50584;29.058;-110.966;2023-07-13T07:03:53;12.50;;;1.60;;
64244;SDS011;50584;29.058;-110.966;2023-07-13T07:06:20;1.45;;;1.35;;
64244;SDS011;50584;29.058;-110.966;2023-07-13T07:08:50;8.45;;;1.60;;
64244;SDS011;50584;29.058;-110.966;2023-07-13T07:11:20;5.95;;;1.60;;
64244;SDS011;50584;29.058;-110.966;2023-07-13T07:13:50;4.03;;;1.30;;
64244;SDS011;50584;29.058;-110.966;2023-07-13T07:16:16;2.80;;;1.85;;
64244;SDS011;50584;29.058;-110.966;2023-07-13T07:18:42;3.10;;;1.80;;
64244;SDS011;50584;29.058;-110.966;2023-07-13T07:21:08;3.15;;;1.80;;
64244;SDS011;50584;29.058;-110.966;2023-07-13T07:23:34;6.57;;;1.95;;
64244;SDS011;50584;29.058;-110.966;2023-07-13T07:26:00;3.47;;;2.03;;
64244;SDS011;50584;29.058;-110.966;2023-07-13T07:28:26;2.00;;;1.63;;
64244;SDS011;50584;29.058;-110.966;2023-07-13T07:30:57;16.88;;;2.00;;
64244;SDS011;50584;29.058;-110.966;2023-07-13T07:33:23;5.38;;;1.80;;
64244;SDS011;50584;29.058;-110.966;2023-07-13T07:35:49;3.65;;;1.88;;
64244;SDS011;50584;29.058;-110.966;2023-07-13T07:38:15;3.40;;;1.60;;
64244;SDS011;50584;29.058;-110.966;2023-07-13T07:40:41;3.20;;;1.67;;
64244;SDS011;50584;29.058;-110.966;2023-07-13T07:43:08;1.98;;;1.50;;
64244;SDS011;50584;29.058;-110.966;2023-07-13T07:45:34;2.53;;;1.40;;
64244;SDS011;50584;29.058;-110.966;2023-07-13T07:48:00;3.35;;;1.60;;
64244;SDS011;50584;29.058;-110.966;2023-07-13T07:50:26;3.53;;;1.33;;
64244;SDS011;50584;29.058;-110.966;2023-07-13T07:52:51;4.90;;;1.50;;
64244;SDS011;50584;29.058;-110.966;2023-07-13T07:55:17;2.35;;;1.20;;
64244;SDS011;50584;29.058;-110.966;2023-07-13T07:57:43;1.52;;;1.13;;
64244;SDS011;50584;29.058;-110.966;2023-07-13T08:00:09;1.73;;;1.63;;
64244;SDS011;50584;29.058;-110.966;2023-07-13T08:02:35;4.07;;;1.30;;
64244;SDS011;50584;29.058;-110.966;2023-07-13T08:05:01;2.05;;;1.35;;
64244;SDS011;50584;29.058;-110.966;2023-07-13T08:07:26;3.83;;;1.40;;
64244;SDS011;50584;29.058;-110.966;2023-07-13T08:09:52;3.70;;;1.30;;
64244;SDS011;50584;29.058;-110.966;2023-07-13T08:12:18;2.85;;;1.30;;
64244;SDS011;50584;29.058;-110.966;2023-07-13T08:14:44;3.03;;;1.20;;
64244;SDS011;50584;29.058;-110.966;2023-07-13T08:17:10;1.30;;;1.20;;
64244;SDS011;50584;29.058;-110.966;2023-07-13T08:19:35;1.33;;;1.25;;
64244;SDS011;50584;29.058;-110.966;2023-07-13T08:22:01;1.92;;;1.38;;
64244;SDS011;50584;29.058;-110.966;2023-07-13T08:24:27;1.33;;;1.23;;
64244;SDS011;50584;29.058;-110.966;2023-07-13T08:26:53;2.17;;;1.20;;
64244;SDS011;50584;29.058;-110.966;2023-07-13T08:29:19;1.45;;;1.35;;
64244;SDS011;50584;29.058;-110.966;2023-07-13T08:31:45;2.00;;;1.38;;
64244;SDS011;50584;29.058;-110.966;2023-07-13T08:34:11;3.15;;;1.70;;
64244;SDS011;50584;29.058;-110.966;2023-07-13T08:36:37;2.13;;;1.35;;
64244;SDS011;50584;29.058;-110.966;2023-07-13T08:39:02;2.05;;;1.50;;
64244;SDS011;50584;29.058;-110.966;2023-07-13T08:41:28;1.85;;;1.48;;
64244;SDS011;50584;29.058;-110.966;2023-07-13T08:43:56;6.35;;;1.70;;
64244;SDS011;50584;29.058;-110.966;2023-07-13T08:48:52;4.70;;;2.60;;
64244;SDS011;50584;29.058;-110.966;2023-07-13T08:54:04;5.10;;;2.33;;
64244;SDS011;50584;29.058;-110.966;2023-07-13T08:56:33;3.15;;;2.60;;
64244;SDS011;50584;29.058;-110.966;2023-07-13T08:59:10;2.05;;;1.80;;
64244;SDS011;50584;29.058;-110.966;2023-07-13T09:04:16;6.60;;;2.20;;
64244;SDS011;50584;29.058;-110.966;2023-07-13T09:06:49;7.30;;;2.28;;
64244;SDS011;50584;29.058;-110.966;2023-07-13T09:09:21;4.22;;;2.20;;
64244;SDS011;50584;29.058;-110.966;2023-07-13T09:11:52;6.03;;;2.70;;
64244;SDS011;50584;29.058;-110.966;2023-07-13T09:16:46;5.45;;;2.78;;
64244;SDS011;50584;29.058;-110.966;2023-07-13T09:19:21;7.88;;;2.85;;
64244;SDS011;50584;29.058;-110.966;2023-07-13T09:21:48;9.45;;;3.25;;
64244;SDS011;50584;29.058;-110.966;2023-07-13T09:27:01;5.68;;;2.50;;
64244;SDS011;50584;29.058;-110.966;2023-07-13T09:29:30;4.50;;;2.22;;
64244;SDS011;50584;29.058;-110.966;2023-07-13T09:31:58;2.13;;;1.90;;
64244;SDS011;50584;29.058;-110.966;2023-07-13T09:34:26;5.45;;;2.20;;
64244;SDS011;50584;29.058;-110.966;2023-07-13T09:36:51;4.75;;;2.40;;
64244;SDS011;50584;29.058;-110.966;2023-07-13T09:44:31;6.90;;;2.25;;
64244;SDS011;50584;29.058;-110.966;2023-07-13T09:46:59;6.00;;;2.38;;
64244;SDS011;50584;29.058;-110.966;2023-07-13T09:49:28;6.20;;;2.47;;
64244;SDS011;50584;29.058;-110.966;2023-07-13T09:52:01;3.70;;;2.40;;
64244;SDS011;50584;29.058;-110.966;2023-07-13T09:54:28;2.65;;;2.35;;
64244;SDS011;50584;29.058;-110.966;2023-07-13T09:56:55;5.55;;;2.85;;
64244;SDS011;50584;29.058;-110.966;2023-07-13T09:59:22;5.55;;;2.95;;
64244;SDS011;50584;29.058;-110.966;2023-07-13T10:01:49;7.68;;;2.92;;
64244;SDS011;50584;29.058;-110.966;2023-07-13T10:04:18;5.03;;;2.30;;
64244;SDS011;50584;29.058;-110.966;2023-07-13T10:06:44;4.97;;;2.70;;
64244;SDS011;50584;29.058;-110.966;2023-07-13T10:09:14;7.55;;;2.40;;
64244;SDS011;50584;29.058;-110.966;2023-07-13T10:11:40;4.43;;;1.80;;
64244;SDS011;50584;29.058;-110.966;2023-07-13T10:16:38;4.30;;;1.80;;
64244;SDS011;50584;29.058;-110.966;2023-07-13T10:19:08;1.92;;;1.73;;
64244;SDS011;50584;29.058;-110.966;2023-07-13T10:21:41;4.57;;;1.58;;
64244;SDS011;50584;29.058;-110.966;2023-07-13T10:24:27;3.78;;;1.67;;
64244;SDS011;50584;29.058;-110.966;2023-07-13T10:29:20;5.43;;;1.60;;
64244;SDS011;50584;29.058;-110.966;2023-07-13T10:31:47;4.00;;;1.98;;
64244;SDS011;50584;29.058;-110.966;2023-07-13T10:34:13;5.20;;;1.77;;
64244;SDS011;50584;29.058;-110.966;2023-07-13T10:36:43;3.38;;;1.70;;
64244;SDS011;50584;29.058;-110.966;2023-07-13T10:41:37;1.80;;;1.50;;
64244;SDS011;50584;29.058;-110.966;2023-07-13T10:44:04;2.03;;;1.67;;
64244;SDS011;50584;29.058;-110.966;2023-07-13T10:46:30;3.65;;;1.50;;
64244;SDS011;50584;29.058;-110.966;2023-07-13T10:49:01;4.25;;;1.50;;
64244;SDS011;50584;29.058;-110.966;2023-07-13T10:51:29;1.75;;;1.20;;
64244;SDS011;50584;29.058;-110.966;2023-07-13T10:54:12;3.97;;;1.70;;
64244;SDS011;50584;29.058;-110.966;2023-07-13T10:56:41;1.75;;;1.25;;
64244;SDS011;50584;29.058;-110.966;2023-07-13T11:01:46;2.42;;;1.20;;
64244;SDS011;50584;29.058;-110.966;2023-07-13T11:04:14;1.48;;;1.38;;
64244;SDS011;50584;29.058;-110.966;2023-07-13T11:06:40;3.53;;;1.35;;
64244;SDS011;50584;29.058;-110.966;2023-07-13T11:11:50;1.92;;;1.70;;
64244;SDS011;50584;29.058;-110.966;2023-07-13T11:16:46;2.55;;;1.40;;
64244;SDS011;50584;29.058;-110.966;2023-07-13T11:22:15;1.67;;;1.58;;
64244;SDS011;50584;29.058;-110.966;2023-07-13T11:24:56;1.98;;;1.52;;
64244;SDS011;50584;29.058;-110.966;2023-07-13T11:27:36;4.97;;;1.70;;
64244;SDS011;50584;29.058;-110.966;2023-07-13T11:30:21;3.38;;;1.80;;
64244;SDS011;50584;29.058;-110.966;2023-07-13T11:32:51;2.90;;;1.42;;
64244;SDS011;50584;29.058;-110.966;2023-07-13T11:35:26;2.58;;;1.58;;
64244;SDS011;50584;29.058;-110.966;2023-07-13T11:37:53;3.90;;;1.42;;
64244;SDS011;50584;29.058;-110.966;2023-07-13T11:40:26;8.98;;;2.00;;
64244;SDS011;50584;29.058;-110.966;2023-07-13T11:42:58;3.05;;;1.73;;
64244;SDS011;50584;29.058;-110.966;2023-07-13T11:45:24;4.40;;;1.67;;
64244;SDS011;50584;29.058;-110.966;2023-07-13T11:47:50;3.90;;;1.60;;
64244;SDS011;50584;29.058;-110.966;2023-07-13T11:50:20;4.40;;;1.60;;
64244;SDS011;50584;29.058;-110.966;2023-07-13T11:55:14;2.72;;;1.35;;
64244;SDS011;50584;29.058;-110.966;2023-07-13T11:57:45;2.67;;;1.75;;
64244;SDS011;50584;29.058;-110.966;2023-07-13T12:00:17;7.18;;;1.70;;
64244;SDS011;50584;29.058;-110.966;2023-07-13T12:02:44;10.35;;;2.58;;
64244;SDS011;50584;29.058;-110.966;2023-07-13T12:05:14;6.97;;;2.58;;
64244;SDS011;50584;29.058;-110.966;2023-07-13T12:07:40;9.40;;;2.53;;
64244;SDS011;50584;29.058;-110.966;2023-07-13T12:12:52;20.50;;;2.88;;
64244;SDS011;50584;29.058;-110.966;2023-07-13T12:15:19;11.88;;;2.15;;
64244;SDS011;50584;29.058;-110.966;2023-07-13T12:17:45;8.73;;;1.67;;
64244;SDS011;50584;29.058;-110.966;2023-07-13T12:20:24;10.50;;;2.53;;
64244;SDS011;50584;29.058;-110.966;2023-07-13T12:22:51;7.07;;;2.20;;
64244;SDS011;50584;29.058;-110.966;2023-07-13T12:25:17;17.52;;;2.47;;
64244;SDS011;50584;29.058;-110.966;2023-07-13T12:27:46;7.25;;;1.70;;
64244;SDS011;50584;29.058;-110.966;2023-07-13T12:30:22;11.55;;;2.08;;
64244;SDS011;50584;29.058;-110.966;2023-07-13T12:35:24;7.88;;;1.90;;
64244;SDS011;50584;29.058;-110.966;2023-07-13T12:37:50;10.25;;;2.10;;
64244;SDS011;50584;29.058;-110.966;2023-07-13T12:40:17;6.25;;;1.90;;
64244;SDS011;50584;29.058;-110.966;2023-07-13T12:42:50;8.57;;;1.92;;
64244;SDS011;50584;29.058;-110.966;2023-07-13T12:45:22;4.68;;;1.77;;
64244;SDS011;50584;29.058;-110.966;2023-07-13T12:47:49;31.90;;;2.90;;
64244;SDS011;50584;29.058;-110.966;2023-07-13T12:50:16;27.95;;;2.88;;
64244;SDS011;50584;29.058;-110.966;2023-07-13T12:52:43;18.38;;;2.40;;
64244;SDS011;50584;29.058;-110.966;2023-07-13T12:55:13;14.13;;;2.60;;
64244;SDS011;50584;29.058;-110.966;2023-07-13T12:57:46;10.25;;;2.45;;
64244;SDS011;50584;29.058;-110.966;2023-07-13T13:00:28;11.18;;;1.90;;
64244;SDS011;50584;29.058;-110.966;2023-07-13T13:02:55;6.28;;;2.17;;
64244;SDS011;50584;29.058;-110.966;2023-07-13T13:05:21;12.18;;;2.28;;
64244;SDS011;50584;29.058;-110.966;2023-07-13T13:07:49;5.00;;;1.67;;
64244;SDS011;50584;29.058;-110.966;2023-07-13T13:10:14;4.03;;;1.60;;
64244;SDS011;50584;29.058;-110.966;2023-07-13T13:12:41;6.13;;;1.55;;
64244;SDS011;50584;29.058;-110.966;2023-07-13T13:15:10;2.75;;;1.50;;
64244;SDS011;50584;29.058;-110.966;2023-07-13T13:17:36;4.93;;;2.35;;
64244;SDS011;50584;29.058;-110.966;2023-07-13T13:20:13;4.60;;;1.92;;
64244;SDS011;50584;29.058;-110.966;2023-07-13T13:22:40;7.85;;;2.03;;
64244;SDS011;50584;29.058;-110.966;2023-07-13T13:25:07;5.43;;;2.03;;
64244;SDS011;50584;29.058;-110.966;2023-07-13T13:27:34;6.85;;;1.73;;
64244;SDS011;50584;29.058;-110.966;2023-07-13T13:29:59;4.47;;;2.00;;
64244;SDS011;50584;29.058;-110.966;2023-07-13T13:32:25;8.57;;;2.42;;
64244;SDS011;50584;29.058;-110.966;2023-07-13T13:34:51;5.68;;;2.03;;
64244;SDS011;50584;29.058;-110.966;2023-07-13T13:37:18;9.57;;;1.90;;
64244;SDS011;50584;29.058;-110.966;2023-07-13T13:39:44;6.20;;;2.00;;
64244;SDS011;50584;29.058;-110.966;2023-07-13T13:42:10;5.70;;;1.60;;
64244;SDS011;50584;29.058;-110.966;2023-07-13T13:44:36;7.03;;;1.77;;
64244;SDS011;50584;29.058;-110.966;2023-07-13T13:47:02;16.13;;;2.35;;
64244;SDS011;50584;29.058;-110.966;2023-07-13T13:49:29;18.52;;;2.20;;
64244;SDS011;50584;29.058;-110.966;2023-07-13T13:51:55;15.57;;;2.53;;
64244;SDS011;50584;29.058;-110.966;2023-07-13T13:54:23;11.02;;;2.45;;
64244;SDS011;50584;29.058;-110.966;2023-07-13T13:56:51;7.07;;;2.35;;
64244;SDS011;50584;29.058;-110.966;2023-07-13T13:59:17;12.18;;;2.00;;
64244;SDS011;50584;29.058;-110.966;2023-07-13T14:01:43;8.25;;;2.58;;
64244;SDS011;50584;29.058;-110.966;2023-07-13T14:04:14;13.18;;;2.80;;
64244;SDS011;50584;29.058;-110.966;2023-07-13T14:06:40;18.52;;;2.63;;
64244;SDS011;50584;29.058;-110.966;2023-07-13T14:09:08;25.08;;;7.63;;
64244;SDS011;50584;29.058;-110.966;2023-07-13T14:11:34;32.60;;;12.05;;
64244;SDS011;50584;29.058;-110.966;2023-07-13T14:14:00;37.78;;;11.82;;
64244;SDS011;50584;29.058;-110.966;2023-07-13T14:16:31;25.38;;;7.68;;
64244;SDS011;50584;29.058;-110.966;2023-07-13T14:18:59;21.45;;;7.00;;
64244;SDS011;50584;29.058;-110.966;2023-07-13T14:21:26;18.08;;;9.23;;
64244;SDS011;50584;29.058;-110.966;2023-07-13T14:23:52;25.95;;;10.27;;
64244;SDS011;50584;29.058;-110.966;2023-07-13T14:26:18;6.82;;;3.65;;
64244;SDS011;50584;29.058;-110.966;2023-07-13T14:28:48;7.30;;;1.73;;
64244;SDS011;50584;29.058;-110.966;2023-07-13T14:31:15;3.88;;;2.17;;
64244;SDS011;50584;29.058;-110.966;2023-07-13T14:33:41;21.58;;;11.55;;
64244;SDS011;50584;29.058;-110.966;2023-07-13T14:36:17;9.30;;;2.20;;
64244;SDS011;50584;29.058;-110.966;2023-07-13T14:38:46;6.05;;;1.95;;
64244;SDS011;50584;29.058;-110.966;2023-07-13T14:41:12;4.40;;;1.80;;
64244;SDS011;50584;29.058;-110.966;2023-07-13T14:43:38;5.55;;;2.03;;
64244;SDS011;50584;29.058;-110.966;2023-07-13T14:46:03;4.28;;;1.77;;
64244;SDS011;50584;29.058;-110.966;2023-07-13T14:48:29;5.80;;;1.85;;
64244;SDS011;50584;29.058;-110.966;2023-07-13T14:50:58;10.43;;;3.13;;
64244;SDS011;50584;29.058;-110.966;2023-07-13T14:53:25;2.40;;;1.58;;